sensor_id;sensor_type;location;lat;lon;timestamp;P1;durP1;ratioP1;P2;durP2;ratioP2
23390;SDS011;11868;45.606;5.302;2023-07-13T00:01:18;2.55;;;1.40;;
23390;SDS011;11868;45.606;5.302;2023-07-13T00:03:43;4.28;;;1.45;;
23390;SDS011;11868;45.606;5.302;2023-07-13T00:06:09;6.57;;;1.70;;
23390;SDS011;11868;45.606;5.302;2023-07-13T00:08:34;5.70;;;1.50;;
23390;SDS011;11868;45.606;5.302;2023-07-13T00:11:00;3.22;;;1.38;;
23390;SDS011;11868;45.606;5.302;2023-07-13T00:13:27;2.80;;;1.30;;
23390;SDS011;11868;45.606;5.302;2023-07-13T00:15:52;2.33;;;1.35;;
23390;SDS011;11868;45.606;5.302;2023-07-13T00:18:19;2.88;;;1.42;;
23390;SDS011;11868;45.606;5.302;2023-07-13T00:20:45;1.40;;;1.20;;
23390;SDS011;11868;45.606;5.302;2023-07-13T00:23:11;3.20;;;1.40;;
23390;SDS011;11868;45.606;5.302;2023-07-13T00:25:36;2.20;;;1.25;;
23390;SDS011;11868;45.606;5.302;2023-07-13T00:28:02;1.98;;;1.38;;
23390;SDS011;11868;45.606;5.302;2023-07-13T00:30:27;3.40;;;1.30;;
23390;SDS011;11868;45.606;5.302;2023-07-13T00:32:53;3.50;;;1.50;;
23390;SDS011;11868;45.606;5.302;2023-07-13T00:35:18;2.60;;;1.30;;
23390;SDS011;11868;45.606;5.302;2023-07-13T00:37:44;4.22;;;1.15;;
23390;SDS011;11868;45.606;5.302;2023-07-13T00:40:10;4.05;;;1.20;;
23390;SDS011;11868;45.606;5.302;2023-07-13T00:42:37;1.75;;;1.27;;
23390;SDS011;11868;45.606;5.302;2023-07-13T00:47:37;2.30;;;1.15;;
23390;SDS011;11868;45.606;5.302;2023-07-13T00:50:03;5.32;;;1.23;;
23390;SDS011;11868;45.606;5.302;2023-07-13T00:52:30;1.67;;;1.20;;
23390;SDS011;11868;45.606;5.302;2023-07-13T00:54:55;2.15;;;1.25;;
23390;SDS011;11868;45.606;5.302;2023-07-13T00:57:21;2.42;;;1.10;;
23390;SDS011;11868;45.606;5.302;2023-07-13T00:59:51;3.38;;;0.90;;
23390;SDS011;11868;45.606;5.302;2023-07-13T01:02:19;3.28;;;1.38;;
23390;SDS011;11868;45.606;5.302;2023-07-13T01:04:44;2.42;;;1.10;;
23390;SDS011;11868;45.606;5.302;2023-07-13T01:07:10;1.63;;;1.13;;
23390;SDS011;11868;45.606;5.302;2023-07-13T01:09:36;3.05;;;1.13;;
23390;SDS011;11868;45.606;5.302;2023-07-13T01:12:01;2.30;;;1.20;;
23390;SDS011;11868;45.606;5.302;2023-07-13T01:14:27;2.22;;;1.10;;
23390;SDS011;11868;45.606;5.302;2023-07-13T01:16:52;2.33;;;1.20;;
23390;SDS011;11868;45.606;5.302;2023-07-13T01:19:52;2.15;;;1.17;;
23390;SDS011;11868;45.606;5.302;2023-07-13T01:22:12;1.65;;;1.00;;
23390;SDS011;11868;45.606;5.302;2023-07-13T01:24:42;3.72;;;1.15;;
23390;SDS011;11868;45.606;5.302;2023-07-13T01:27:09;3.35;;;1.20;;
23390;SDS011;11868;45.606;5.302;2023-07-13T01:29:36;2.60;;;1.08;;
23390;SDS011;11868;45.606;5.302;2023-07-13T01:32:13;2.03;;;1.10;;
23390;SDS011;11868;45.606;5.302;2023-07-13T01:34:40;2.28;;;1.10;;
23390;SDS011;11868;45.606;5.302;2023-07-13T01:37:07;1.45;;;1.05;;
23390;SDS011;11868;45.606;5.302;2023-07-13T01:42:02;2.53;;;1.15;;
23390;SDS011;11868;45.606;5.302;2023-07-13T01:44:28;1.90;;;1.08;;
23390;SDS011;11868;45.606;5.302;2023-07-13T01:46:53;2.00;;;1.25;;
23390;SDS011;11868;45.606;5.302;2023-07-13T01:49:19;2.53;;;1.15;;
23390;SDS011;11868;45.606;5.302;2023-07-13T01:51:44;3.25;;;1.27;;
23390;SDS011;11868;45.606;5.302;2023-07-13T01:54:10;1.35;;;1.08;;
23390;SDS011;11868;45.606;5.302;2023-07-13T01:56:35;3.60;;;1.40;;
23390;SDS011;11868;45.606;5.302;2023-07-13T01:59:00;5.10;;;1.27;;
23390;SDS011;11868;45.606;5.302;2023-07-13T02:01:26;3.60;;;1.13;;
23390;SDS011;11868;45.606;5.302;2023-07-13T02:03:51;4.70;;;1.20;;
23390;SDS011;11868;45.606;5.302;2023-07-13T02:06:16;4.18;;;1.10;;
23390;SDS011;11868;45.606;5.302;2023-07-13T02:08:42;3.25;;;1.20;;
23390;SDS011;11868;45.606;5.302;2023-07-13T02:11:07;4.93;;;1.50;;
23390;SDS011;11868;45.606;5.302;2023-07-13T02:13:33;3.15;;;1.17;;
23390;SDS011;11868;45.606;5.302;2023-07-13T02:15:58;3.83;;;1.20;;
23390;SDS011;11868;45.606;5.302;2023-07-13T02:18:24;2.92;;;1.10;;
23390;SDS011;11868;45.606;5.302;2023-07-13T02:20:49;3.35;;;1.20;;
23390;SDS011;11868;45.606;5.302;2023-07-13T02:23:14;3.83;;;1.13;;
23390;SDS011;11868;45.606;5.302;2023-07-13T02:25:40;3.70;;;1.20;;
23390;SDS011;11868;45.606;5.302;2023-07-13T02:28:06;3.63;;;1.20;;
23390;SDS011;11868;45.606;5.302;2023-07-13T02:30:31;5.88;;;1.10;;
23390;SDS011;11868;45.606;5.302;2023-07-13T02:32:57;2.88;;;1.10;;
23390;SDS011;11868;45.606;5.302;2023-07-13T02:35:22;4.65;;;1.50;;
23390;SDS011;11868;45.606;5.302;2023-07-13T02:37:48;3.45;;;1.20;;
23390;SDS011;11868;45.606;5.302;2023-07-13T02:40:14;5.22;;;1.10;;
23390;SDS011;11868;45.606;5.302;2023-07-13T02:42:39;4.65;;;1.33;;
23390;SDS011;11868;45.606;5.302;2023-07-13T02:45:05;7.70;;;1.38;;
23390;SDS011;11868;45.606;5.302;2023-07-13T02:47:33;4.82;;;1.73;;
23390;SDS011;11868;45.606;5.302;2023-07-13T02:49:58;3.58;;;1.48;;
23390;SDS011;11868;45.606;5.302;2023-07-13T02:52:24;6.53;;;1.80;;
23390;SDS011;11868;45.606;5.302;2023-07-13T02:54:49;4.97;;;1.67;;
23390;SDS011;11868;45.606;5.302;2023-07-13T02:57:15;4.30;;;1.52;;
23390;SDS011;11868;45.606;5.302;2023-07-13T02:59:40;5.68;;;1.83;;
23390;SDS011;11868;45.606;5.302;2023-07-13T03:02:06;7.07;;;1.67;;
23390;SDS011;11868;45.606;5.302;2023-07-13T03:04:31;4.40;;;1.42;;
23390;SDS011;11868;45.606;5.302;2023-07-13T03:06:56;6.07;;;1.98;;
23390;SDS011;11868;45.606;5.302;2023-07-13T03:09:23;5.60;;;1.65;;
23390;SDS011;11868;45.606;5.302;2023-07-13T03:11:52;6.63;;;1.70;;
23390;SDS011;11868;45.606;5.302;2023-07-13T03:14:18;11.52;;;1.75;;
23390;SDS011;11868;45.606;5.302;2023-07-13T03:16:44;4.55;;;2.00;;
23390;SDS011;11868;45.606;5.302;2023-07-13T03:19:09;6.72;;;1.70;;
23390;SDS011;11868;45.606;5.302;2023-07-13T03:21:35;6.47;;;1.65;;
23390;SDS011;11868;45.606;5.302;2023-07-13T03:24:00;3.58;;;1.42;;
23390;SDS011;11868;45.606;5.302;2023-07-13T03:26:25;3.53;;;1.55;;
23390;SDS011;11868;45.606;5.302;2023-07-13T03:28:51;4.03;;;1.58;;
23390;SDS011;11868;45.606;5.302;2023-07-13T03:31:17;5.03;;;1.70;;
23390;SDS011;11868;45.606;5.302;2023-07-13T03:33:44;7.80;;;1.80;;
23390;SDS011;11868;45.606;5.302;2023-07-13T03:36:13;5.20;;;1.65;;
23390;SDS011;11868;45.606;5.302;2023-07-13T03:38:41;5.18;;;1.75;;
23390;SDS011;11868;45.606;5.302;2023-07-13T03:41:06;6.93;;;1.70;;
23390;SDS011;11868;45.606;5.302;2023-07-13T03:43:31;2.78;;;1.40;;
23390;SDS011;11868;45.606;5.302;2023-07-13T03:45:57;5.35;;;1.45;;
23390;SDS011;11868;45.606;5.302;2023-07-13T03:48:22;5.13;;;1.50;;
23390;SDS011;11868;45.606;5.302;2023-07-13T03:50:48;4.43;;;1.70;;
23390;SDS011;11868;45.606;5.302;2023-07-13T03:53:14;7.00;;;1.85;;
23390;SDS011;11868;45.606;5.302;2023-07-13T03:55:40;8.63;;;1.77;;
23390;SDS011;11868;45.606;5.302;2023-07-13T04:00:49;2.33;;;1.52;;
23390;SDS011;11868;45.606;5.302;2023-07-13T04:03:15;2.60;;;1.40;;
23390;SDS011;11868;45.606;5.302;2023-07-13T04:05:41;4.13;;;1.45;;
23390;SDS011;11868;45.606;5.302;2023-07-13T04:08:06;4.00;;;1.40;;
23390;SDS011;11868;45.606;5.302;2023-07-13T04:10:32;2.53;;;1.23;;
23390;SDS011;11868;45.606;5.302;2023-07-13T04:12:57;3.88;;;1.45;;
23390;SDS011;11868;45.606;5.302;2023-07-13T04:15:23;4.60;;;1.40;;
23390;SDS011;11868;45.606;5.302;2023-07-13T04:17:48;6.70;;;1.52;;
23390;SDS011;11868;45.606;5.302;2023-07-13T04:20:14;1.95;;;1.05;;
23390;SDS011;11868;45.606;5.302;2023-07-13T04:22:39;1.98;;;1.40;;
23390;SDS011;11868;45.606;5.302;2023-07-13T04:25:04;9.02;;;1.77;;
23390;SDS011;11868;45.606;5.302;2023-07-13T04:27:30;4.68;;;1.50;;
23390;SDS011;11868;45.606;5.302;2023-07-13T04:29:56;5.25;;;1.20;;
23390;SDS011;11868;45.606;5.302;2023-07-13T04:32:21;4.85;;;1.10;;
23390;SDS011;11868;45.606;5.302;2023-07-13T04:34:46;6.40;;;2.20;;
23390;SDS011;11868;45.606;5.302;2023-07-13T04:37:12;4.57;;;1.60;;
23390;SDS011;11868;45.606;5.302;2023-07-13T04:39:37;6.88;;;1.80;;
23390;SDS011;11868;45.606;5.302;2023-07-13T04:42:03;4.65;;;1.63;;
23390;SDS011;11868;45.606;5.302;2023-07-13T04:44:29;3.88;;;1.65;;
23390;SDS011;11868;45.606;5.302;2023-07-13T04:46:54;5.60;;;1.65;;
23390;SDS011;11868;45.606;5.302;2023-07-13T04:49:19;2.53;;;1.52;;
23390;SDS011;11868;45.606;5.302;2023-07-13T04:51:45;8.48;;;1.77;;
23390;SDS011;11868;45.606;5.302;2023-07-13T04:54:10;6.35;;;1.92;;
23390;SDS011;11868;45.606;5.302;2023-07-13T04:56:35;5.18;;;1.60;;
23390;SDS011;11868;45.606;5.302;2023-07-13T04:59:01;3.35;;;1.50;;
23390;SDS011;11868;45.606;5.302;2023-07-13T05:01:27;3.83;;;1.63;;
23390;SDS011;11868;45.606;5.302;2023-07-13T05:03:52;2.90;;;1.45;;
23390;SDS011;11868;45.606;5.302;2023-07-13T05:06:17;4.07;;;1.70;;
23390;SDS011;11868;45.606;5.302;2023-07-13T05:08:43;4.30;;;1.30;;
23390;SDS011;11868;45.606;5.302;2023-07-13T05:11:08;3.13;;;1.58;;
23390;SDS011;11868;45.606;5.302;2023-07-13T05:13:34;4.75;;;1.60;;
23390;SDS011;11868;45.606;5.302;2023-07-13T05:16:03;4.70;;;1.77;;
23390;SDS011;11868;45.606;5.302;2023-07-13T05:18:31;4.70;;;1.60;;
23390;SDS011;11868;45.606;5.302;2023-07-13T05:21:04;8.07;;;2.05;;
23390;SDS011;11868;45.606;5.302;2023-07-13T05:23:31;3.97;;;1.77;;
23390;SDS011;11868;45.606;5.302;2023-07-13T05:25:57;2.45;;;1.70;;
23390;SDS011;11868;45.606;5.302;2023-07-13T05:28:22;8.38;;;2.88;;
23390;SDS011;11868;45.606;5.302;2023-07-13T05:30:48;6.50;;;2.10;;
23390;SDS011;11868;45.606;5.302;2023-07-13T05:33:14;3.55;;;1.98;;
23390;SDS011;11868;45.606;5.302;2023-07-13T05:35:41;8.55;;;1.98;;
23390;SDS011;11868;45.606;5.302;2023-07-13T05:38:06;15.32;;;2.30;;
23390;SDS011;11868;45.606;5.302;2023-07-13T05:40:32;3.58;;;1.80;;
23390;SDS011;11868;45.606;5.302;2023-07-13T05:42:57;3.33;;;1.85;;
23390;SDS011;11868;45.606;5.302;2023-07-13T05:45:22;5.93;;;1.80;;
23390;SDS011;11868;45.606;5.302;2023-07-13T05:47:48;6.53;;;1.98;;
23390;SDS011;11868;45.606;5.302;2023-07-13T05:50:13;4.10;;;1.88;;
23390;SDS011;11868;45.606;5.302;2023-07-13T05:52:39;3.63;;;1.77;;
23390;SDS011;11868;45.606;5.302;2023-07-13T05:55:04;5.00;;;1.83;;
23390;SDS011;11868;45.606;5.302;2023-07-13T05:57:30;5.18;;;2.10;;
23390;SDS011;11868;45.606;5.302;2023-07-13T05:59:56;4.25;;;2.00;;
23390;SDS011;11868;45.606;5.302;2023-07-13T06:02:21;4.70;;;2.05;;
23390;SDS011;11868;45.606;5.302;2023-07-13T06:04:46;9.40;;;1.80;;
23390;SDS011;11868;45.606;5.302;2023-07-13T06:07:12;3.30;;;1.90;;
23390;SDS011;11868;45.606;5.302;2023-07-13T06:09:37;5.25;;;1.83;;
23390;SDS011;11868;45.606;5.302;2023-07-13T06:12:03;4.53;;;1.80;;
23390;SDS011;11868;45.606;5.302;2023-07-13T06:14:29;4.88;;;1.90;;
23390;SDS011;11868;45.606;5.302;2023-07-13T06:16:54;4.63;;;2.08;;
23390;SDS011;11868;45.606;5.302;2023-07-13T06:19:20;4.85;;;1.95;;
23390;SDS011;11868;45.606;5.302;2023-07-13T06:21:45;5.55;;;2.20;;
23390;SDS011;11868;45.606;5.302;2023-07-13T06:24:11;4.55;;;1.77;;
23390;SDS011;11868;45.606;5.302;2023-07-13T06:26:36;3.33;;;1.98;;
23390;SDS011;11868;45.606;5.302;2023-07-13T06:29:01;3.55;;;1.88;;
23390;SDS011;11868;45.606;5.302;2023-07-13T06:31:27;3.50;;;2.08;;
23390;SDS011;11868;45.606;5.302;2023-07-13T06:33:52;2.55;;;1.65;;
23390;SDS011;11868;45.606;5.302;2023-07-13T06:36:17;6.82;;;1.70;;
23390;SDS011;11868;45.606;5.302;2023-07-13T06:38:43;2.80;;;1.80;;
23390;SDS011;11868;45.606;5.302;2023-07-13T06:41:08;5.15;;;1.60;;
23390;SDS011;11868;45.606;5.302;2023-07-13T06:43:33;11.25;;;1.60;;
23390;SDS011;11868;45.606;5.302;2023-07-13T06:45:59;5.88;;;1.77;;
23390;SDS011;11868;45.606;5.302;2023-07-13T06:48:26;5.72;;;1.75;;
23390;SDS011;11868;45.606;5.302;2023-07-13T06:50:51;4.32;;;1.80;;
23390;SDS011;11868;45.606;5.302;2023-07-13T06:53:18;4.43;;;1.50;;
23390;SDS011;11868;45.606;5.302;2023-07-13T06:55:44;4.10;;;1.50;;
23390;SDS011;11868;45.606;5.302;2023-07-13T06:58:10;4.38;;;1.50;;
23390;SDS011;11868;45.606;5.302;2023-07-13T07:00:36;3.83;;;1.77;;
23390;SDS011;11868;45.606;5.302;2023-07-13T07:03:01;5.13;;;1.27;;
23390;SDS011;11868;45.606;5.302;2023-07-13T07:05:26;8.65;;;1.50;;
23390;SDS011;11868;45.606;5.302;2023-07-13T07:07:53;5.03;;;1.45;;
23390;SDS011;11868;45.606;5.302;2023-07-13T07:10:19;3.75;;;1.52;;
23390;SDS011;11868;45.606;5.302;2023-07-13T07:12:45;5.88;;;1.70;;
23390;SDS011;11868;45.606;5.302;2023-07-13T07:15:10;6.72;;;1.70;;
23390;SDS011;11868;45.606;5.302;2023-07-13T07:17:35;12.75;;;1.88;;
23390;SDS011;11868;45.606;5.302;2023-07-13T07:20:01;6.60;;;1.52;;
23390;SDS011;11868;45.606;5.302;2023-07-13T07:22:27;9.02;;;1.92;;
23390;SDS011;11868;45.606;5.302;2023-07-13T07:24:53;5.18;;;1.83;;
23390;SDS011;11868;45.606;5.302;2023-07-13T07:27:18;4.50;;;1.77;;
23390;SDS011;11868;45.606;5.302;2023-07-13T07:29:44;6.38;;;1.65;;
23390;SDS011;11868;45.606;5.302;2023-07-13T07:32:09;4.45;;;1.88;;
23390;SDS011;11868;45.606;5.302;2023-07-13T07:34:34;4.03;;;2.15;;
23390;SDS011;11868;45.606;5.302;2023-07-13T07:37:00;6.32;;;2.05;;
23390;SDS011;11868;45.606;5.302;2023-07-13T07:39:26;4.57;;;1.63;;
23390;SDS011;11868;45.606;5.302;2023-07-13T07:41:52;8.13;;;1.95;;
23390;SDS011;11868;45.606;5.302;2023-07-13T07:44:17;7.43;;;2.40;;
23390;SDS011;11868;45.606;5.302;2023-07-13T07:46:43;5.35;;;1.50;;
23390;SDS011;11868;45.606;5.302;2023-07-13T07:49:08;5.55;;;2.05;;
23390;SDS011;11868;45.606;5.302;2023-07-13T07:51:33;5.78;;;1.70;;
23390;SDS011;11868;45.606;5.302;2023-07-13T07:53:59;6.95;;;1.75;;
23390;SDS011;11868;45.606;5.302;2023-07-13T07:56:24;5.30;;;1.85;;
23390;SDS011;11868;45.606;5.302;2023-07-13T07:58:50;3.63;;;1.63;;
23390;SDS011;11868;45.606;5.302;2023-07-13T08:01:15;7.57;;;1.95;;
23390;SDS011;11868;45.606;5.302;2023-07-13T08:03:41;5.60;;;1.65;;
23390;SDS011;11868;45.606;5.302;2023-07-13T08:06:06;4.85;;;1.73;;
23390;SDS011;11868;45.606;5.302;2023-07-13T08:08:31;7.03;;;1.88;;
23390;SDS011;11868;45.606;5.302;2023-07-13T08:10:57;6.32;;;1.60;;
23390;SDS011;11868;45.606;5.302;2023-07-13T08:13:22;5.80;;;1.73;;
23390;SDS011;11868;45.606;5.302;2023-07-13T08:15:47;8.88;;;1.83;;
23390;SDS011;11868;45.606;5.302;2023-07-13T08:18:14;4.88;;;1.55;;
23390;SDS011;11868;45.606;5.302;2023-07-13T08:20:40;7.20;;;1.80;;
23390;SDS011;11868;45.606;5.302;2023-07-13T08:23:06;8.60;;;2.00;;
23390;SDS011;11868;45.606;5.302;2023-07-13T08:25:32;8.20;;;1.85;;
23390;SDS011;11868;45.606;5.302;2023-07-13T08:27:57;7.43;;;1.63;;
23390;SDS011;11868;45.606;5.302;2023-07-13T08:30:22;5.63;;;2.10;;
23390;SDS011;11868;45.606;5.302;2023-07-13T08:32:48;5.47;;;1.63;;
23390;SDS011;11868;45.606;5.302;2023-07-13T08:35:14;10.20;;;2.22;;
23390;SDS011;11868;45.606;5.302;2023-07-13T08:37:41;11.65;;;2.13;;
23390;SDS011;11868;45.606;5.302;2023-07-13T08:40:07;4.90;;;1.50;;
23390;SDS011;11868;45.606;5.302;2023-07-13T08:45:22;7.15;;;1.95;;
23390;SDS011;11868;45.606;5.302;2023-07-13T08:47:57;8.02;;;1.95;;
23390;SDS011;11868;45.606;5.302;2023-07-13T08:50:28;4.80;;;1.60;;
23390;SDS011;11868;45.606;5.302;2023-07-13T08:52:56;7.00;;;2.08;;
23390;SDS011;11868;45.606;5.302;2023-07-13T08:55:24;7.03;;;1.70;;
23390;SDS011;11868;45.606;5.302;2023-07-13T08:58:00;6.15;;;2.00;;
23390;SDS011;11868;45.606;5.302;2023-07-13T09:00:32;8.50;;;1.92;;
23390;SDS011;11868;45.606;5.302;2023-07-13T09:03:01;7.60;;;2.00;;
23390;SDS011;11868;45.606;5.302;2023-07-13T09:05:31;4.68;;;1.50;;
23390;SDS011;11868;45.606;5.302;2023-07-13T09:08:14;11.15;;;2.10;;
23390;SDS011;11868;45.606;5.302;2023-07-13T09:10:46;9.60;;;1.75;;
23390;SDS011;11868;45.606;5.302;2023-07-13T09:13:19;3.22;;;1.52;;
23390;SDS011;11868;45.606;5.302;2023-07-13T09:16:09;5.50;;;1.63;;
23390;SDS011;11868;45.606;5.302;2023-07-13T09:18:40;6.13;;;1.60;;
23390;SDS011;11868;45.606;5.302;2023-07-13T09:21:10;5.05;;;1.75;;
23390;SDS011;11868;45.606;5.302;2023-07-13T09:23:37;3.97;;;1.60;;
23390;SDS011;11868;45.606;5.302;2023-07-13T09:28:46;6.13;;;1.58;;
23390;SDS011;11868;45.606;5.302;2023-07-13T09:31:15;6.22;;;1.35;;
23390;SDS011;11868;45.606;5.302;2023-07-13T09:33:43;9.07;;;2.15;;
23390;SDS011;11868;45.606;5.302;2023-07-13T09:39:01;4.70;;;1.60;;
23390;SDS011;11868;45.606;5.302;2023-07-13T09:41:46;4.13;;;1.35;;
23390;SDS011;11868;45.606;5.302;2023-07-13T09:44:16;7.90;;;1.60;;
23390;SDS011;11868;45.606;5.302;2023-07-13T09:46:44;7.10;;;1.83;;
23390;SDS011;11868;45.606;5.302;2023-07-13T09:49:12;4.70;;;1.23;;
23390;SDS011;11868;45.606;5.302;2023-07-13T09:51:40;4.30;;;1.20;;
23390;SDS011;11868;45.606;5.302;2023-07-13T09:54:14;2.10;;;1.40;;
23390;SDS011;11868;45.606;5.302;2023-07-13T09:56:48;9.32;;;1.88;;
23390;SDS011;11868;45.606;5.302;2023-07-13T09:59:27;5.03;;;1.58;;
23390;SDS011;11868;45.606;5.302;2023-07-13T10:01:55;7.95;;;1.60;;
23390;SDS011;11868;45.606;5.302;2023-07-13T10:04:26;7.32;;;1.40;;
23390;SDS011;11868;45.606;5.302;2023-07-13T10:07:04;6.93;;;1.60;;
23390;SDS011;11868;45.606;5.302;2023-07-13T10:09:33;3.97;;;1.20;;
23390;SDS011;11868;45.606;5.302;2023-07-13T10:11:59;6.75;;;1.30;;
23390;SDS011;11868;45.606;5.302;2023-07-13T10:14:24;7.18;;;1.52;;
23390;SDS011;11868;45.606;5.302;2023-07-13T10:16:52;5.90;;;1.65;;
23390;SDS011;11868;45.606;5.302;2023-07-13T10:19:27;3.55;;;1.58;;
23390;SDS011;11868;45.606;5.302;2023-07-13T10:21:59;6.78;;;1.50;;
23390;SDS011;11868;45.606;5.302;2023-07-13T10:24:27;6.95;;;1.38;;
23390;SDS011;11868;45.606;5.302;2023-07-13T10:30:21;5.60;;;1.10;;
23390;SDS011;11868;45.606;5.302;2023-07-13T10:32:35;5.30;;;1.25;;
23390;SDS011;11868;45.606;5.302;2023-07-13T10:35:00;6.97;;;1.50;;
23390;SDS011;11868;45.606;5.302;2023-07-13T10:37:29;6.13;;;1.52;;
23390;SDS011;11868;45.606;5.302;2023-07-13T10:39:57;4.18;;;1.23;;
23390;SDS011;11868;45.606;5.302;2023-07-13T10:42:27;5.18;;;1.42;;
23390;SDS011;11868;45.606;5.302;2023-07-13T10:44:54;8.10;;;1.33;;
23390;SDS011;11868;45.606;5.302;2023-07-13T10:47:19;5.35;;;1.50;;
23390;SDS011;11868;45.606;5.302;2023-07-13T10:49:45;3.97;;;1.30;;
23390;SDS011;11868;45.606;5.302;2023-07-13T10:57:59;3.85;;;1.55;;
23390;SDS011;11868;45.606;5.302;2023-07-13T11:00:26;4.50;;;1.30;;
23390;SDS011;11868;45.606;5.302;2023-07-13T11:02:56;2.38;;;1.00;;
23390;SDS011;11868;45.606;5.302;2023-07-13T11:07:56;2.30;;;1.23;;
23390;SDS011;11868;45.606;5.302;2023-07-13T11:13:37;2.25;;;1.10;;
23390;SDS011;11868;45.606;5.302;2023-07-13T11:16:12;3.60;;;1.08;;
23390;SDS011;11868;45.606;5.302;2023-07-13T11:18:38;1.75;;;1.10;;
23390;SDS011;11868;45.606;5.302;2023-07-13T11:21:19;2.90;;;0.88;;
23390;SDS011;11868;45.606;5.302;2023-07-13T11:23:52;4.63;;;1.20;;
23390;SDS011;11868;45.606;5.302;2023-07-13T11:29:14;2.05;;;1.20;;
23390;SDS011;11868;45.606;5.302;2023-07-13T11:31:51;3.90;;;1.20;;
23390;SDS011;11868;45.606;5.302;2023-07-13T11:34:18;3.00;;;1.10;;
23390;SDS011;11868;45.606;5.302;2023-07-13T11:37:02;3.53;;;1.30;;
23390;SDS011;11868;45.606;5.302;2023-07-13T11:39:31;3.90;;;1.10;;
23390;SDS011;11868;45.606;5.302;2023-07-13T11:41:59;7.60;;;1.45;;
23390;SDS011;11868;45.606;5.302;2023-07-13T11:44:28;5.43;;;1.30;;
23390;SDS011;11868;45.606;5.302;2023-07-13T11:46:55;6.38;;;1.20;;
23390;SDS011;11868;45.606;5.302;2023-07-13T11:49:26;5.55;;;1.60;;
23390;SDS011;11868;45.606;5.302;2023-07-13T11:51:52;4.80;;;1.48;;
23390;SDS011;11868;45.606;5.302;2023-07-13T11:56:49;3.80;;;1.35;;
23390;SDS011;11868;45.606;5.302;2023-07-13T11:59:14;4.50;;;1.27;;
23390;SDS011;11868;45.606;5.302;2023-07-13T12:01:42;4.90;;;1.23;;
23390;SDS011;11868;45.606;5.302;2023-07-13T12:04:19;5.97;;;1.42;;
23390;SDS011;11868;45.606;5.302;2023-07-13T12:06:54;5.60;;;1.55;;
23390;SDS011;11868;45.606;5.302;2023-07-13T12:09:20;3.25;;;1.23;;
23390;SDS011;11868;45.606;5.302;2023-07-13T12:11:50;6.78;;;1.27;;
23390;SDS011;11868;45.606;5.302;2023-07-13T12:14:16;3.67;;;1.17;;
23390;SDS011;11868;45.606;5.302;2023-07-13T12:16:42;2.97;;;1.00;;
23390;SDS011;11868;45.606;5.302;2023-07-13T12:19:42;4.43;;;1.20;;
23390;SDS011;11868;45.606;5.302;2023-07-13T12:22:00;3.28;;;1.00;;
23390;SDS011;11868;45.606;5.302;2023-07-13T12:24:26;2.47;;;1.25;;
23390;SDS011;11868;45.606;5.302;2023-07-13T12:26:59;4.63;;;1.13;;
23390;SDS011;11868;45.606;5.302;2023-07-13T12:29:28;2.65;;;1.30;;
23390;SDS011;11868;45.606;5.302;2023-07-13T12:31:54;1.20;;;0.95;;
23390;SDS011;11868;45.606;5.302;2023-07-13T12:34:21;5.88;;;1.20;;
23390;SDS011;11868;45.606;5.302;2023-07-13T12:36:50;5.20;;;1.30;;
23390;SDS011;11868;45.606;5.302;2023-07-13T12:41:46;3.80;;;1.52;;
23390;SDS011;11868;45.606;5.302;2023-07-13T12:44:13;8.32;;;1.20;;
23390;SDS011;11868;45.606;5.302;2023-07-13T12:46:50;3.60;;;1.13;;
23390;SDS011;11868;45.606;5.302;2023-07-13T12:49:18;2.70;;;1.20;;
23390;SDS011;11868;45.606;5.302;2023-07-13T12:51:49;5.15;;;1.27;;
23390;SDS011;11868;45.606;5.302;2023-07-13T12:54:17;7.73;;;1.47;;
23390;SDS011;11868;45.606;5.302;2023-07-13T12:56:44;3.53;;;1.42;;
23390;SDS011;11868;45.606;5.302;2023-07-13T12:59:14;4.43;;;1.10;;
23390;SDS011;11868;45.606;5.302;2023-07-13T13:01:42;3.25;;;1.30;;
23390;SDS011;11868;45.606;5.302;2023-07-13T13:04:08;2.65;;;1.00;;
23390;SDS011;11868;45.606;5.302;2023-07-13T13:06:36;3.92;;;0.90;;
23390;SDS011;11868;45.606;5.302;2023-07-13T13:09:02;4.03;;;1.20;;
23390;SDS011;11868;45.606;5.302;2023-07-13T13:11:29;2.33;;;1.00;;
23390;SDS011;11868;45.606;5.302;2023-07-13T13:13:55;1.83;;;1.00;;
23390;SDS011;11868;45.606;5.302;2023-07-13T13:18:46;6.03;;;1.27;;
23390;SDS011;11868;45.606;5.302;2023-07-13T13:21:12;7.28;;;1.10;;
23390;SDS011;11868;45.606;5.302;2023-07-13T13:23:37;5.65;;;1.35;;
23390;SDS011;11868;45.606;5.302;2023-07-13T13:26:04;1.98;;;1.02;;
23390;SDS011;11868;45.606;5.302;2023-07-13T13:28:33;4.90;;;1.27;;
23390;SDS011;11868;45.606;5.302;2023-07-13T13:30:59;5.32;;;1.20;;
23390;SDS011;11868;45.606;5.302;2023-07-13T13:33:24;6.05;;;1.25;;
23390;SDS011;11868;45.606;5.302;2023-07-13T13:35:49;2.22;;;0.90;;
23390;SDS011;11868;45.606;5.302;2023-07-13T13:38:16;3.88;;;1.20;;
23390;SDS011;11868;45.606;5.302;2023-07-13T13:40:43;4.05;;;1.30;;
23390;SDS011;11868;45.606;5.302;2023-07-13T13:45:46;3.83;;;1.20;;
23390;SDS011;11868;45.606;5.302;2023-07-13T13:48:19;2.92;;;1.25;;
23390;SDS011;11868;45.606;5.302;2023-07-13T13:50:46;1.73;;;1.00;;
23390;SDS011;11868;45.606;5.302;2023-07-13T13:53:12;7.50;;;1.15;;
23390;SDS011;11868;45.606;5.302;2023-07-13T13:55:38;3.65;;;1.30;;
23390;SDS011;11868;45.606;5.302;2023-07-13T13:58:06;6.07;;;1.40;;
23390;SDS011;11868;45.606;5.302;2023-07-13T14:00:35;4.55;;;1.02;;
23390;SDS011;11868;45.606;5.302;2023-07-13T14:03:01;3.40;;;1.05;;
23390;SDS011;11868;45.606;5.302;2023-07-13T14:05:27;6.82;;;1.30;;
23390;SDS011;11868;45.606;5.302;2023-07-13T14:07:53;2.08;;;1.10;;
23390;SDS011;11868;45.606;5.302;2023-07-13T14:10:19;2.85;;;1.00;;
23390;SDS011;11868;45.606;5.302;2023-07-13T14:12:50;5.18;;;1.13;;
23390;SDS011;11868;45.606;5.302;2023-07-13T14:15:21;2.72;;;1.17;;
23390;SDS011;11868;45.606;5.302;2023-07-13T14:17:49;6.93;;;1.33;;
23390;SDS011;11868;45.606;5.302;2023-07-13T14:20:18;5.13;;;1.20;;
23390;SDS011;11868;45.606;5.302;2023-07-13T14:22:45;3.97;;;1.15;;
23390;SDS011;11868;45.606;5.302;2023-07-13T14:25:11;6.68;;;1.20;;
23390;SDS011;11868;45.606;5.302;2023-07-13T14:27:37;4.05;;;1.20;;
23390;SDS011;11868;45.606;5.302;2023-07-13T14:30:04;4.90;;;1.10;;
23390;SDS011;11868;45.606;5.302;2023-07-13T14:32:37;4.18;;;1.08;;
23390;SDS011;11868;45.606;5.302;2023-07-13T14:35:02;1.92;;;1.00;;
23390;SDS011;11868;45.606;5.302;2023-07-13T14:37:28;2.85;;;1.27;;
23390;SDS011;11868;45.606;5.302;2023-07-13T14:39:54;2.35;;;0.90;;
23390;SDS011;11868;45.606;5.302;2023-07-13T14:42:19;3.22;;;1.15;;
23390;SDS011;11868;45.606;5.302;2023-07-13T14:44:45;2.35;;;1.20;;
23390;SDS011;11868;45.606;5.302;2023-07-13T14:47:10;5.72;;;1.20;;
23390;SDS011;11868;45.606;5.302;2023-07-13T14:49:37;2.78;;;1.25;;
23390;SDS011;11868;45.606;5.302;2023-07-13T14:52:11;2.72;;;1.10;;
23390;SDS011;11868;45.606;5.302;2023-07-13T14:54:45;4.07;;;1.08;;
23390;SDS011;11868;45.606;5.302;2023-07-13T14:57:17;3.30;;;1.20;;
23390;SDS011;11868;45.606;5.302;2023-07-13T14:59:44;2.15;;;0.85;;
23390;SDS011;11868;45.606;5.302;2023-07-13T15:04:40;5.03;;;1.23;;
23390;SDS011;11868;45.606;5.302;2023-07-13T15:07:05;8.85;;;1.52;;
23390;SDS011;11868;45.606;5.302;2023-07-13T15:09:33;2.17;;;0.98;;
23390;SDS011;11868;45.606;5.302;2023-07-13T15:11:59;3.95;;;1.20;;
23390;SDS011;11868;45.606;5.302;2023-07-13T15:14:25;3.63;;;1.13;;
23390;SDS011;11868;45.606;5.302;2023-07-13T15:16:52;6.13;;;1.02;;
23390;SDS011;11868;45.606;5.302;2023-07-13T15:19:18;4.30;;;1.20;;
23390;SDS011;11868;45.606;5.302;2023-07-13T15:21:44;3.53;;;1.10;;
23390;SDS011;11868;45.606;5.302;2023-07-13T15:24:10;3.08;;;1.00;;
23390;SDS011;11868;45.606;5.302;2023-07-13T15:26:35;3.00;;;1.50;;
23390;SDS011;11868;45.606;5.302;2023-07-13T15:29:01;2.53;;;1.08;;
23390;SDS011;11868;45.606;5.302;2023-07-13T15:31:27;4.85;;;1.10;;
23390;SDS011;11868;45.606;5.302;2023-07-13T15:33:54;2.78;;;1.02;;